NCAR-RAP Real-Time Weather Data

Output produced by METARs form (08 May 2021  16:48 UTC)
found at http://weather.rap.ucar.edu/surface/
 
KCRG 081553Z 10SM CLR 24/05 A3016 RMK AO2 SLP211 T02390050
KCRG 081453Z VRB04KT 9SM CLR 23/04 A3015 RMK AO2 SLP210 T02330044 51006
KCRG 081353Z 05007KT 10SM CLR 22/06 A3015 RMK AO2 SLP208 T02220061
KCRG 081253Z 03008KT 10SM CLR 20/07 A3015 RMK AO2 SLP210 T02000067
KCRG 081153Z 34005KT 10SM CLR 17/07 A3013 RMK AO2 SLP203 T01670067 10172 20117 53019
KCRG 081053Z 33005KT 10SM CLR 13/06 A3011 RMK AO2 SLP195 T01280061
KCRG 080953Z AUTO 34005KT 10SM CLR 13/06 A3009 RMK AO2 SLP189 T01280061
KCRG 080853Z AUTO 00000KT 10SM CLR 13/06 A3008 RMK AO2 SLP185 T01330061 56003
KCRG 080753Z AUTO 36005KT 4SM HZ CLR 16/06 A3008 RMK AO2 SLP185 T01560056
KCRG 080653Z AUTO 35005KT 5SM HZ CLR 16/06 A3008 RMK AO2 SLP185 T01560061
KCRG 080553Z AUTO 01003KT 10SM CLR 17/06 A3009 RMK AO2 SLP187 T01720061 10244 20161 51006
KCRG 080453Z AUTO 35004KT 10SM CLR 18/06 A3009 RMK AO2 SLP187 T01780061 402830172
KCRG 080353Z AUTO 35005KT 10SM CLR 19/06 A3008 RMK AO2 SLP187 T01890056
KCRG 080253Z AUTO 34007KT 10SM CLR 21/06 A3007 RMK AO2 SLP181 T02060056 53028
KCRG 080153Z 31006KT 9SM CLR 22/06 A3004 RMK AO2 SLP170 T02170061
KCRG 080053Z 30007KT 10SM CLR 23/04 A3000 RMK AO2 SLP159 T02280039